sensor_id;sensor_type;location;lat;lon;timestamp;pressure;altitude;pressure_sealevel;temperature;humidity
68169;BME280;54981;50.206;15.978;2023-06-10T00:00:57;98617.59;;;15.88;100.00
68169;BME280;54981;50.206;15.978;2023-06-10T00:03:27;98621.25;;;15.87;100.00
68169;BME280;54981;50.206;15.978;2023-06-10T00:05:58;98614.06;;;15.88;100.00
68169;BME280;54981;50.206;15.978;2023-06-10T00:08:28;98621.25;;;15.87;100.00
68169;BME280;54981;50.206;15.978;2023-06-10T00:11:01;98618.09;;;15.82;100.00
68169;BME280;54981;50.206;15.978;2023-06-10T00:13:31;98621.75;;;15.81;100.00
68169;BME280;54981;50.206;15.978;2023-06-10T00:16:02;98623.13;;;15.75;100.00
68169;BME280;54981;50.206;15.978;2023-06-10T00:18:33;98624.22;;;15.73;100.00
68169;BME280;54981;50.206;15.978;2023-06-10T00:21:07;98620.56;;;15.74;100.00
68169;BME280;54981;50.206;15.978;2023-06-10T00:23:37;98619.94;;;15.70;100.00
68169;BME280;54981;50.206;15.978;2023-06-10T00:26:08;98620.56;;;15.74;100.00
68169;BME280;54981;50.206;15.978;2023-06-10T00:28:38;98623.56;;;15.69;100.00
68169;BME280;54981;50.206;15.978;2023-06-10T00:31:09;98615.78;;;15.66;100.00
68169;BME280;54981;50.206;15.978;2023-06-10T00:33:39;98621.53;;;15.62;100.00
68169;BME280;54981;50.206;15.978;2023-06-10T00:36:09;98626.16;;;15.60;100.00
68169;BME280;54981;50.206;15.978;2023-06-10T00:38:40;98629.69;;;15.60;100.00
68169;BME280;54981;50.206;15.978;2023-06-10T00:41:11;98625.31;;;15.59;100.00
68169;BME280;54981;50.206;15.978;2023-06-10T00:43:41;98624.94;;;15.64;100.00
68169;BME280;54981;50.206;15.978;2023-06-10T00:46:12;98623.84;;;15.66;100.00
68169;BME280;54981;50.206;15.978;2023-06-10T00:48:44;98633.25;;;15.49;100.00
68169;BME280;54981;50.206;15.978;2023-06-10T00:51:16;98620.31;;;15.54;100.00
68169;BME280;54981;50.206;15.978;2023-06-10T00:53:48;98627.38;;;15.55;100.00
68169;BME280;54981;50.206;15.978;2023-06-10T00:56:20;98630.78;;;15.46;100.00
68169;BME280;54981;50.206;15.978;2023-06-10T00:58:51;98627.63;;;15.52;100.00
68169;BME280;54981;50.206;15.978;2023-06-10T01:01:22;98628.34;;;15.54;100.00
68169;BME280;54981;50.206;15.978;2023-06-10T01:03:52;98634.94;;;15.50;100.00
68169;BME280;54981;50.206;15.978;2023-06-10T01:12:00;98640.06;;;15.53;100.00
68169;BME280;54981;50.206;15.978;2023-06-10T01:14:32;98640.78;;;15.55;100.00
68169;BME280;54981;50.206;15.978;2023-06-10T01:17:03;98643.09;;;15.49;100.00
68169;BME280;54981;50.206;15.978;2023-06-10T01:19:34;98640.06;;;15.53;100.00
68169;BME280;54981;50.206;15.978;2023-06-10T01:22:06;98643.25;;;15.59;100.00
68169;BME280;54981;50.206;15.978;2023-06-10T01:24:37;98643.94;;;15.61;100.00
68169;BME280;54981;50.206;15.978;2023-06-10T01:27:13;98643.47;;;15.67;100.00
68169;BME280;54981;50.206;15.978;2023-06-10T01:29:50;98645.06;;;15.69;100.00
68169;BME280;54981;50.206;15.978;2023-06-10T01:32:31;98644.97;;;15.71;100.00
68169;BME280;54981;50.206;15.978;2023-06-10T01:35:03;98639.44;;;15.72;100.00
68169;BME280;54981;50.206;15.978;2023-06-10T01:37:37;98649.09;;;15.75;100.00
68169;BME280;54981;50.206;15.978;2023-06-10T01:40:09;98645.81;;;15.71;100.00
68169;BME280;54981;50.206;15.978;2023-06-10T01:42:40;98645.31;;;15.66;100.00
68169;BME280;54981;50.206;15.978;2023-06-10T01:45:10;98654.94;;;15.69;100.00
68169;BME280;54981;50.206;15.978;2023-06-10T01:47:41;98646.78;;;15.70;100.00
68169;BME280;54981;50.206;15.978;2023-06-10T01:50:11;98659.81;;;15.75;100.00
68169;BME280;54981;50.206;15.978;2023-06-10T01:52:42;98650.81;;;15.76;100.00
68169;BME280;54981;50.206;15.978;2023-06-10T01:55:12;98659.69;;;15.65;100.00
68169;BME280;54981;50.206;15.978;2023-06-10T01:57:43;98652.13;;;15.70;100.00
68169;BME280;54981;50.206;15.978;2023-06-10T02:00:13;98666.41;;;15.60;100.00
68169;BME280;54981;50.206;15.978;2023-06-10T02:02:44;98661.78;;;15.62;100.00
68169;BME280;54981;50.206;15.978;2023-06-10T02:05:14;98661.53;;;15.65;100.00
68169;BME280;54981;50.206;15.978;2023-06-10T02:07:45;98671.03;;;15.69;100.00
68169;BME280;54981;50.206;15.978;2023-06-10T02:10:15;98660.09;;;15.72;100.00
68169;BME280;54981;50.206;15.978;2023-06-10T02:12:46;98659.81;;;15.75;100.00
68169;BME280;54981;50.206;15.978;2023-06-10T02:15:16;98658.59;;;15.79;100.00
68169;BME280;54981;50.206;15.978;2023-06-10T02:17:46;98661.03;;;15.82;100.00
68169;BME280;54981;50.206;15.978;2023-06-10T02:20:19;98670.09;;;15.81;100.00
68169;BME280;54981;50.206;15.978;2023-06-10T02:22:49;98665.66;;;15.80;100.00
68169;BME280;54981;50.206;15.978;2023-06-10T02:25:19;98664.72;;;15.81;100.00
68169;BME280;54981;50.206;15.978;2023-06-10T02:27:50;98674.59;;;15.81;100.00
68169;BME280;54981;50.206;15.978;2023-06-10T02:30:20;98665.56;;;15.82;100.00
68169;BME280;54981;50.206;15.978;2023-06-10T02:32:51;98663.59;;;15.84;100.00
68169;BME280;54981;50.206;15.978;2023-06-10T02:35:22;98670.66;;;15.85;100.00
68169;BME280;54981;50.206;15.978;2023-06-10T02:37:54;98665.06;;;15.88;100.00
68169;BME280;54981;50.206;15.978;2023-06-10T02:40:24;98662.38;;;15.88;100.00
68169;BME280;54981;50.206;15.978;2023-06-10T02:42:55;98667.03;;;15.86;100.00
68169;BME280;54981;50.206;15.978;2023-06-10T02:45:25;98667.97;;;15.85;100.00
68169;BME280;54981;50.206;15.978;2023-06-10T02:47:55;98670.34;;;15.78;100.00
68169;BME280;54981;50.206;15.978;2023-06-10T02:50:26;98678.97;;;15.82;100.00
68169;BME280;54981;50.206;15.978;2023-06-10T02:52:56;98677.88;;;15.84;100.00
68169;BME280;54981;50.206;15.978;2023-06-10T02:55:27;98676.91;;;15.85;100.00
68169;BME280;54981;50.206;15.978;2023-06-10T02:57:57;98674.47;;;15.82;100.00
68169;BME280;54981;50.206;15.978;2023-06-10T03:00:29;98675.94;;;15.86;100.00
68169;BME280;54981;50.206;15.978;2023-06-10T03:02:59;98676.78;;;15.87;100.00
68169;BME280;54981;50.206;15.978;2023-06-10T03:05:33;98667.50;;;15.91;100.00
68169;BME280;54981;50.206;15.978;2023-06-10T03:08:04;98676.25;;;16.04;100.00
68169;BME280;54981;50.206;15.978;2023-06-10T03:10:34;98669.28;;;16.02;100.00
68169;BME280;54981;50.206;15.978;2023-06-10T03:13:05;98676.50;;;16.01;100.00
68169;BME280;54981;50.206;15.978;2023-06-10T03:15:35;98683.47;;;16.04;100.00
68169;BME280;54981;50.206;15.978;2023-06-10T03:18:06;98680.28;;;16.10;100.00
68169;BME280;54981;50.206;15.978;2023-06-10T03:20:37;98674.84;;;16.32;100.00
68169;BME280;54981;50.206;15.978;2023-06-10T03:23:10;98675.31;;;16.37;100.00
68169;BME280;54981;50.206;15.978;2023-06-10T03:25:40;98674.72;;;16.34;100.00
68169;BME280;54981;50.206;15.978;2023-06-10T03:28:11;98676.28;;;16.36;100.00
68169;BME280;54981;50.206;15.978;2023-06-10T03:30:41;98682.59;;;16.47;100.00
68169;BME280;54981;50.206;15.978;2023-06-10T03:33:12;98675.97;;;16.62;100.00
68169;BME280;54981;50.206;15.978;2023-06-10T03:35:42;98684.16;;;16.60;100.00
68169;BME280;54981;50.206;15.978;2023-06-10T03:38:13;98681.91;;;16.66;100.00
68169;BME280;54981;50.206;15.978;2023-06-10T03:40:43;98682.53;;;16.69;100.00
68169;BME280;54981;50.206;15.978;2023-06-10T03:43:13;98678.13;;;16.68;100.00
68169;BME280;54981;50.206;15.978;2023-06-10T03:45:44;98681.03;;;16.76;100.00
68169;BME280;54981;50.206;15.978;2023-06-10T03:48:15;98674.78;;;16.76;100.00
68169;BME280;54981;50.206;15.978;2023-06-10T03:50:45;98675.50;;;16.78;100.00
68169;BME280;54981;50.206;15.978;2023-06-10T03:53:17;98676.03;;;16.72;100.00
68169;BME280;54981;50.206;15.978;2023-06-10T03:55:48;98662.59;;;16.72;100.00
68169;BME280;54981;50.206;15.978;2023-06-10T03:58:18;98668.81;;;16.72;100.00
68169;BME280;54981;50.206;15.978;2023-06-10T04:00:49;98671.63;;;16.71;100.00
68169;BME280;54981;50.206;15.978;2023-06-10T04:03:20;98677.84;;;16.71;100.00
68169;BME280;54981;50.206;15.978;2023-06-10T04:05:51;98677.84;;;16.71;100.00
68169;BME280;54981;50.206;15.978;2023-06-10T04:08:22;98677.72;;;16.73;100.00
68169;BME280;54981;50.206;15.978;2023-06-10T04:10:52;98678.34;;;16.76;100.00
68169;BME280;54981;50.206;15.978;2023-06-10T04:13:23;98687.63;;;16.72;100.00
68169;BME280;54981;50.206;15.978;2023-06-10T04:15:53;98689.94;;;16.77;100.00
68169;BME280;54981;50.206;15.978;2023-06-10T04:18:24;98691.34;;;16.60;100.00
68169;BME280;54981;50.206;15.978;2023-06-10T04:20:55;98689.34;;;16.41;100.00
68169;BME280;54981;50.206;15.978;2023-06-10T04:23:25;98693.78;;;16.31;100.00
68169;BME280;54981;50.206;15.978;2023-06-10T04:25:56;98691.22;;;16.29;100.00
68169;BME280;54981;50.206;15.978;2023-06-10T04:28:26;98698.06;;;16.22;100.00
68169;BME280;54981;50.206;15.978;2023-06-10T04:30:57;98696.84;;;16.26;100.00
68169;BME280;54981;50.206;15.978;2023-06-10T04:33:28;98701.84;;;16.31;100.00
68169;BME280;54981;50.206;15.978;2023-06-10T04:35:58;98693.56;;;16.23;100.00
68169;BME280;54981;50.206;15.978;2023-06-10T04:38:28;98693.94;;;16.18;100.00
68169;BME280;54981;50.206;15.978;2023-06-10T04:41:00;98694.66;;;16.20;100.00
68169;BME280;54981;50.206;15.978;2023-06-10T04:43:31;98695.50;;;16.21;100.00
68169;BME280;54981;50.206;15.978;2023-06-10T04:46:01;98698.06;;;16.22;100.00
68169;BME280;54981;50.206;15.978;2023-06-10T04:48:31;98693.69;;;16.21;100.00
68169;BME280;54981;50.206;15.978;2023-06-10T04:51:05;98695.13;;;16.25;100.00
68169;BME280;54981;50.206;15.978;2023-06-10T04:53:35;98694.41;;;16.23;100.00
68169;BME280;54981;50.206;15.978;2023-06-10T04:56:07;98706.88;;;16.24;100.00
68169;BME280;54981;50.206;15.978;2023-06-10T04:58:37;98699.66;;;16.25;100.00
68169;BME280;54981;50.206;15.978;2023-06-10T05:01:08;98701.22;;;16.27;100.00
68169;BME280;54981;50.206;15.978;2023-06-10T05:03:38;98701.22;;;16.27;100.00
68169;BME280;54981;50.206;15.978;2023-06-10T05:06:08;98703.91;;;16.27;100.00
68169;BME280;54981;50.206;15.978;2023-06-10T05:08:40;98704.03;;;16.26;100.00
68169;BME280;54981;50.206;15.978;2023-06-10T05:11:10;98711.97;;;16.27;100.00
68169;BME280;54981;50.206;15.978;2023-06-10T05:13:41;98711.13;;;16.38;100.00
68169;BME280;54981;50.206;15.978;2023-06-10T05:16:12;98707.94;;;16.33;100.00
68169;BME280;54981;50.206;15.978;2023-06-10T05:18:43;98716.88;;;16.33;100.00
68169;BME280;54981;50.206;15.978;2023-06-10T05:21:13;98722.94;;;16.35;100.00
68169;BME280;54981;50.206;15.978;2023-06-10T05:23:43;98723.19;;;16.32;100.00
68169;BME280;54981;50.206;15.978;2023-06-10T05:26:14;98728.31;;;16.35;100.00
68169;BME280;54981;50.206;15.978;2023-06-10T05:28:44;98727.81;;;16.42;100.00
68169;BME280;54981;50.206;15.978;2023-06-10T05:31:15;98723.91;;;16.46;100.00
68169;BME280;54981;50.206;15.978;2023-06-10T05:33:45;98722.91;;;16.47;100.00
68169;BME280;54981;50.206;15.978;2023-06-10T05:36:16;98723.06;;;16.45;100.00
68169;BME280;54981;50.206;15.978;2023-06-10T05:38:46;98733.66;;;16.47;100.00
68169;BME280;54981;50.206;15.978;2023-06-10T05:41:17;98736.34;;;16.47;100.00
68169;BME280;54981;50.206;15.978;2023-06-10T05:43:47;98727.31;;;16.48;100.00
68169;BME280;54981;50.206;15.978;2023-06-10T05:46:17;98730.34;;;16.54;100.00
68169;BME280;54981;50.206;15.978;2023-06-10T05:48:48;98733.63;;;16.58;100.00
68169;BME280;54981;50.206;15.978;2023-06-10T05:51:18;98727.28;;;16.59;100.00
68169;BME280;54981;50.206;15.978;2023-06-10T05:53:49;98732.25;;;16.64;100.00
68169;BME280;54981;50.206;15.978;2023-06-10T05:56:19;98732.25;;;16.64;100.00
68169;BME280;54981;50.206;15.978;2023-06-10T05:58:51;98736.78;;;16.63;100.00
68169;BME280;54981;50.206;15.978;2023-06-10T06:01:27;98734.31;;;16.71;100.00
68169;BME280;54981;50.206;15.978;2023-06-10T06:04:00;98735.53;;;16.78;100.00
68169;BME280;54981;50.206;15.978;2023-06-10T06:06:30;98735.28;;;16.81;100.00
68169;BME280;54981;50.206;15.978;2023-06-10T06:09:00;98729.19;;;16.79;100.00
68169;BME280;54981;50.206;15.978;2023-06-10T06:11:36;98729.19;;;16.79;100.00
68169;BME280;54981;50.206;15.978;2023-06-10T06:14:06;98729.19;;;16.79;100.00
68169;BME280;54981;50.206;15.978;2023-06-10T06:16:37;98729.19;;;16.79;100.00
68169;BME280;54981;50.206;15.978;2023-06-10T06:19:08;98729.19;;;16.79;100.00
68169;BME280;54981;50.206;15.978;2023-06-10T06:21:39;60100.03;;;-145.37;100.00
68169;BME280;54981;50.206;15.978;2023-06-10T06:24:10;60100.03;;;-145.37;100.00
68169;BME280;54981;50.206;15.978;2023-06-10T06:26:40;60100.03;;;-145.37;100.00
68169;BME280;54981;50.206;15.978;2023-06-10T06:29:10;60100.03;;;-145.37;100.00
68169;BME280;54981;50.206;15.978;2023-06-10T06:31:41;60100.03;;;-145.37;100.00
68169;BME280;54981;50.206;15.978;2023-06-10T06:34:11;60100.03;;;-145.37;100.00
68169;BME280;54981;50.206;15.978;2023-06-10T06:36:41;60100.03;;;-145.37;100.00
68169;BME280;54981;50.206;15.978;2023-06-10T06:39:12;60100.03;;;-145.37;100.00
68169;BME280;54981;50.206;15.978;2023-06-10T06:41:42;60100.03;;;-145.37;100.00
68169;BME280;54981;50.206;15.978;2023-06-10T06:44:13;60100.03;;;-145.37;100.00
68169;BME280;54981;50.206;15.978;2023-06-10T06:46:43;60100.03;;;-145.37;100.00
68169;BME280;54981;50.206;15.978;2023-06-10T06:49:14;60100.03;;;-145.37;100.00
68169;BME280;54981;50.206;15.978;2023-06-10T06:51:44;60100.03;;;-145.37;100.00
68169;BME280;54981;50.206;15.978;2023-06-10T06:54:14;60100.03;;;-145.37;100.00
68169;BME280;54981;50.206;15.978;2023-06-10T06:56:45;60100.03;;;-145.37;100.00
68169;BME280;54981;50.206;15.978;2023-06-10T06:59:15;60100.03;;;-145.37;100.00
68169;BME280;54981;50.206;15.978;2023-06-10T07:01:47;60100.03;;;-145.37;100.00
68169;BME280;54981;50.206;15.978;2023-06-10T07:04:18;60100.03;;;-145.37;100.00
68169;BME280;54981;50.206;15.978;2023-06-10T07:06:49;60100.03;;;-145.37;100.00
68169;BME280;54981;50.206;15.978;2023-06-10T07:09:20;60100.03;;;-145.37;100.00
68169;BME280;54981;50.206;15.978;2023-06-10T07:11:50;60100.03;;;-145.37;100.00
68169;BME280;54981;50.206;15.978;2023-06-10T07:14:21;60100.03;;;-145.37;100.00
68169;BME280;54981;50.206;15.978;2023-06-10T07:16:51;60100.03;;;-145.37;100.00
68169;BME280;54981;50.206;15.978;2023-06-10T07:19:22;60100.03;;;-145.37;100.00
68169;BME280;54981;50.206;15.978;2023-06-10T07:21:52;60100.03;;;-145.37;100.00
68169;BME280;54981;50.206;15.978;2023-06-10T07:24:22;60100.03;;;-145.37;100.00
68169;BME280;54981;50.206;15.978;2023-06-10T07:26:53;60100.03;;;-145.37;100.00
68169;BME280;54981;50.206;15.978;2023-06-10T07:29:23;60100.03;;;-145.37;100.00
68169;BME280;54981;50.206;15.978;2023-06-10T07:31:53;60100.03;;;-145.37;100.00
68169;BME280;54981;50.206;15.978;2023-06-10T07:34:24;60100.03;;;-145.37;100.00
68169;BME280;54981;50.206;15.978;2023-06-10T07:36:54;60100.03;;;-145.37;100.00
68169;BME280;54981;50.206;15.978;2023-06-10T07:39:25;60100.03;;;-145.37;100.00
68169;BME280;54981;50.206;15.978;2023-06-10T07:41:55;60100.03;;;-145.37;100.00
68169;BME280;54981;50.206;15.978;2023-06-10T07:44:27;60100.03;;;-145.37;100.00
68169;BME280;54981;50.206;15.978;2023-06-10T07:46:58;60100.03;;;-145.37;100.00
68169;BME280;54981;50.206;15.978;2023-06-10T07:49:28;60100.03;;;-145.37;100.00
68169;BME280;54981;50.206;15.978;2023-06-10T07:51:58;60100.03;;;-145.37;100.00
68169;BME280;54981;50.206;15.978;2023-06-10T07:54:29;60100.03;;;-145.37;100.00
68169;BME280;54981;50.206;15.978;2023-06-10T07:57:00;60100.03;;;-145.37;100.00
68169;BME280;54981;50.206;15.978;2023-06-10T07:59:30;60100.03;;;-145.37;100.00
68169;BME280;54981;50.206;15.978;2023-06-10T08:02:00;60100.03;;;-145.37;100.00
68169;BME280;54981;50.206;15.978;2023-06-10T08:04:31;60100.03;;;-145.37;100.00
68169;BME280;54981;50.206;15.978;2023-06-10T08:07:05;60100.03;;;-145.37;100.00
68169;BME280;54981;50.206;15.978;2023-06-10T08:09:36;60100.03;;;-145.37;100.00
68169;BME280;54981;50.206;15.978;2023-06-10T08:12:06;60100.03;;;-145.37;100.00
68169;BME280;54981;50.206;15.978;2023-06-10T08:14:37;60100.03;;;-145.37;100.00
68169;BME280;54981;50.206;15.978;2023-06-10T08:17:08;60100.03;;;-145.37;100.00
68169;BME280;54981;50.206;15.978;2023-06-10T08:19:39;60100.03;;;-145.37;100.00
68169;BME280;54981;50.206;15.978;2023-06-10T08:22:09;60100.03;;;-145.37;100.00
68169;BME280;54981;50.206;15.978;2023-06-10T08:24:40;60100.03;;;-145.37;100.00
68169;BME280;54981;50.206;15.978;2023-06-10T08:27:10;60100.03;;;-145.37;100.00
68169;BME280;54981;50.206;15.978;2023-06-10T08:29:41;60100.03;;;-145.37;100.00
68169;BME280;54981;50.206;15.978;2023-06-10T08:32:11;60100.03;;;-145.37;100.00
68169;BME280;54981;50.206;15.978;2023-06-10T08:34:41;60100.03;;;-145.37;100.00
68169;BME280;54981;50.206;15.978;2023-06-10T08:37:12;60100.03;;;-145.37;100.00
68169;BME280;54981;50.206;15.978;2023-06-10T08:39:42;60100.03;;;-145.37;100.00
68169;BME280;54981;50.206;15.978;2023-06-10T08:42:28;60100.03;;;-145.37;100.00
68169;BME280;54981;50.206;15.978;2023-06-10T08:45:01;60100.03;;;-145.37;100.00
68169;BME280;54981;50.206;15.978;2023-06-10T08:47:32;60100.03;;;-145.37;100.00
68169;BME280;54981;50.206;15.978;2023-06-10T08:50:07;60100.03;;;-145.37;100.00
68169;BME280;54981;50.206;15.978;2023-06-10T08:52:42;60100.03;;;-145.37;100.00
68169;BME280;54981;50.206;15.978;2023-06-10T08:55:33;60100.03;;;-145.37;100.00
68169;BME280;54981;50.206;15.978;2023-06-10T08:58:04;60100.03;;;-145.37;100.00
68169;BME280;54981;50.206;15.978;2023-06-10T09:00:34;60100.03;;;-145.37;100.00
68169;BME280;54981;50.206;15.978;2023-06-10T09:03:06;60100.03;;;-145.37;100.00
68169;BME280;54981;50.206;15.978;2023-06-10T09:05:38;60100.03;;;-145.37;100.00
68169;BME280;54981;50.206;15.978;2023-06-10T09:08:09;60100.03;;;-145.37;100.00
68169;BME280;54981;50.206;15.978;2023-06-10T09:10:40;60100.03;;;-145.37;100.00
68169;BME280;54981;50.206;15.978;2023-06-10T09:13:11;60100.03;;;-145.37;100.00
68169;BME280;54981;50.206;15.978;2023-06-10T09:15:41;60100.03;;;-145.37;100.00
68169;BME280;54981;50.206;15.978;2023-06-10T09:18:12;60100.03;;;-145.37;100.00
68169;BME280;54981;50.206;15.978;2023-06-10T09:20:43;60100.03;;;-145.37;100.00
68169;BME280;54981;50.206;15.978;2023-06-10T09:23:15;60100.03;;;-145.37;100.00
68169;BME280;54981;50.206;15.978;2023-06-10T09:25:45;60100.03;;;-145.37;100.00
68169;BME280;54981;50.206;15.978;2023-06-10T09:28:15;60100.03;;;-145.37;100.00
68169;BME280;54981;50.206;15.978;2023-06-10T09:30:46;60100.03;;;-145.37;100.00
68169;BME280;54981;50.206;15.978;2023-06-10T09:33:16;60100.03;;;-145.37;100.00
68169;BME280;54981;50.206;15.978;2023-06-10T09:35:48;60100.03;;;-145.37;100.00
68169;BME280;54981;50.206;15.978;2023-06-10T09:38:20;60100.03;;;-145.37;100.00
68169;BME280;54981;50.206;15.978;2023-06-10T09:40:53;60100.03;;;-145.37;100.00
68169;BME280;54981;50.206;15.978;2023-06-10T09:43:41;60100.03;;;-145.37;100.00
68169;BME280;54981;50.206;15.978;2023-06-10T09:46:19;60100.03;;;-145.37;100.00
68169;BME280;54981;50.206;15.978;2023-06-10T09:48:50;60100.03;;;-145.37;100.00
68169;BME280;54981;50.206;15.978;2023-06-10T09:51:20;60100.03;;;-145.37;100.00
68169;BME280;54981;50.206;15.978;2023-06-10T09:53:52;60100.03;;;-145.37;100.00
68169;BME280;54981;50.206;15.978;2023-06-10T09:56:33;60100.03;;;-145.37;100.00
68169;BME280;54981;50.206;15.978;2023-06-10T09:59:04;60100.03;;;-145.37;100.00
68169;BME280;54981;50.206;15.978;2023-06-10T10:01:36;60100.03;;;-145.37;100.00
68169;BME280;54981;50.206;15.978;2023-06-10T10:04:06;60100.03;;;-145.37;100.00
68169;BME280;54981;50.206;15.978;2023-06-10T10:06:38;60100.03;;;-145.37;100.00
68169;BME280;54981;50.206;15.978;2023-06-10T10:09:09;60100.03;;;-145.37;100.00
68169;BME280;54981;50.206;15.978;2023-06-10T10:11:39;60100.03;;;-145.37;100.00
68169;BME280;54981;50.206;15.978;2023-06-10T10:14:13;60100.03;;;-145.37;100.00
68169;BME280;54981;50.206;15.978;2023-06-10T10:16:48;60100.03;;;-145.37;100.00
68169;BME280;54981;50.206;15.978;2023-06-10T10:19:27;60100.03;;;-145.37;100.00
68169;BME280;54981;50.206;15.978;2023-06-10T10:22:06;60100.03;;;-145.37;100.00
68169;BME280;54981;50.206;15.978;2023-06-10T10:24:48;60100.03;;;-145.37;100.00
68169;BME280;54981;50.206;15.978;2023-06-10T10:27:31;60100.03;;;-145.37;100.00
68169;BME280;54981;50.206;15.978;2023-06-10T10:30:04;60100.03;;;-145.37;100.00
68169;BME280;54981;50.206;15.978;2023-06-10T10:32:44;60100.03;;;-145.37;100.00
68169;BME280;54981;50.206;15.978;2023-06-10T10:35:17;60100.03;;;-145.37;100.00
68169;BME280;54981;50.206;15.978;2023-06-10T10:37:53;60100.03;;;-145.37;100.00
68169;BME280;54981;50.206;15.978;2023-06-10T10:40:25;60100.03;;;-145.37;100.00
68169;BME280;54981;50.206;15.978;2023-06-10T10:42:57;60100.03;;;-145.37;100.00
68169;BME280;54981;50.206;15.978;2023-06-10T10:45:29;60100.03;;;-145.37;100.00
68169;BME280;54981;50.206;15.978;2023-06-10T10:48:05;60100.03;;;-145.37;100.00
68169;BME280;54981;50.206;15.978;2023-06-10T10:50:40;60100.03;;;-145.37;100.00
68169;BME280;54981;50.206;15.978;2023-06-10T10:53:10;60100.03;;;-145.37;100.00
68169;BME280;54981;50.206;15.978;2023-06-10T10:55:41;60100.03;;;-145.37;100.00
68169;BME280;54981;50.206;15.978;2023-06-10T10:58:13;60100.03;;;-145.37;100.00
68169;BME280;54981;50.206;15.978;2023-06-10T11:00:44;60100.03;;;-145.37;100.00
68169;BME280;54981;50.206;15.978;2023-06-10T11:03:16;60100.03;;;-145.37;100.00
68169;BME280;54981;50.206;15.978;2023-06-10T11:05:48;60100.03;;;-145.37;100.00
68169;BME280;54981;50.206;15.978;2023-06-10T11:10:58;60100.03;;;-145.37;100.00
68169;BME280;54981;50.206;15.978;2023-06-10T11:13:29;60100.03;;;-145.37;100.00
68169;BME280;54981;50.206;15.978;2023-06-10T11:15:59;60100.03;;;-145.37;100.00
68169;BME280;54981;50.206;15.978;2023-06-10T11:18:39;60100.03;;;-145.37;100.00
68169;BME280;54981;50.206;15.978;2023-06-10T11:21:09;60100.03;;;-145.37;100.00
68169;BME280;54981;50.206;15.978;2023-06-10T11:23:43;60100.03;;;-145.37;100.00
68169;BME280;54981;50.206;15.978;2023-06-10T11:26:17;60100.03;;;-145.37;100.00
68169;BME280;54981;50.206;15.978;2023-06-10T11:31:24;60100.03;;;-145.37;100.00
68169;BME280;54981;50.206;15.978;2023-06-10T11:33:56;60100.03;;;-145.37;100.00
68169;BME280;54981;50.206;15.978;2023-06-10T11:36:27;60100.03;;;-145.37;100.00
68169;BME280;54981;50.206;15.978;2023-06-10T11:39:04;60100.03;;;-145.37;100.00
68169;BME280;54981;50.206;15.978;2023-06-10T11:41:37;60100.03;;;-145.37;100.00
68169;BME280;54981;50.206;15.978;2023-06-10T11:44:12;60100.03;;;-145.37;100.00
68169;BME280;54981;50.206;15.978;2023-06-10T11:46:48;60100.03;;;-145.37;100.00
68169;BME280;54981;50.206;15.978;2023-06-10T11:49:20;60100.03;;;-145.37;100.00
68169;BME280;54981;50.206;15.978;2023-06-10T11:51:57;60100.03;;;-145.37;100.00
68169;BME280;54981;50.206;15.978;2023-06-10T11:54:27;60100.03;;;-145.37;100.00
68169;BME280;54981;50.206;15.978;2023-06-10T11:56:59;60100.03;;;-145.37;100.00
68169;BME280;54981;50.206;15.978;2023-06-10T11:59:31;60100.03;;;-145.37;100.00
68169;BME280;54981;50.206;15.978;2023-06-10T12:02:01;60100.03;;;-145.37;100.00
68169;BME280;54981;50.206;15.978;2023-06-10T12:04:35;60100.03;;;-145.37;100.00
68169;BME280;54981;50.206;15.978;2023-06-10T12:07:07;60100.03;;;-145.37;100.00
68169;BME280;54981;50.206;15.978;2023-06-10T12:09:37;60100.03;;;-145.37;100.00
68169;BME280;54981;50.206;15.978;2023-06-10T12:12:08;60100.03;;;-145.37;100.00
68169;BME280;54981;50.206;15.978;2023-06-10T12:14:56;60100.03;;;-145.37;100.00
68169;BME280;54981;50.206;15.978;2023-06-10T12:20:00;60100.03;;;-145.37;100.00
68169;BME280;54981;50.206;15.978;2023-06-10T12:22:43;60100.03;;;-145.37;100.00
68169;BME280;54981;50.206;15.978;2023-06-10T12:25:14;60100.03;;;-145.37;100.00
68169;BME280;54981;50.206;15.978;2023-06-10T12:27:52;60100.03;;;-145.37;100.00
68169;BME280;54981;50.206;15.978;2023-06-10T12:30:26;60100.03;;;-145.37;100.00
68169;BME280;54981;50.206;15.978;2023-06-10T12:32:57;60100.03;;;-145.37;100.00
68169;BME280;54981;50.206;15.978;2023-06-10T12:35:28;60100.03;;;-145.37;100.00
68169;BME280;54981;50.206;15.978;2023-06-10T12:38:02;60100.03;;;-145.37;100.00
68169;BME280;54981;50.206;15.978;2023-06-10T12:40:39;60100.03;;;-145.37;100.00
68169;BME280;54981;50.206;15.978;2023-06-10T12:43:19;60100.03;;;-145.37;100.00
68169;BME280;54981;50.206;15.978;2023-06-10T12:45:50;60100.03;;;-145.37;100.00
68169;BME280;54981;50.206;15.978;2023-06-10T12:48:24;60100.03;;;-145.37;100.00
68169;BME280;54981;50.206;15.978;2023-06-10T12:50:56;60100.03;;;-145.37;100.00
68169;BME280;54981;50.206;15.978;2023-06-10T12:53:27;60100.03;;;-145.37;100.00
68169;BME280;54981;50.206;15.978;2023-06-10T12:55:57;60100.03;;;-145.37;100.00
68169;BME280;54981;50.206;15.978;2023-06-10T12:58:28;60100.03;;;-145.37;100.00
68169;BME280;54981;50.206;15.978;2023-06-10T13:00:59;60100.03;;;-145.37;100.00
68169;BME280;54981;50.206;15.978;2023-06-10T13:03:29;60100.03;;;-145.37;100.00
68169;BME280;54981;50.206;15.978;2023-06-10T13:06:00;60100.03;;;-145.37;100.00